OEB weather

Branch County Memorial Airport
Coldwater, Michigan, United States

Public forecast

Using degrees Fahrenheit for public forecast. Weather courtesy of forecast.io.

Current aviation weather report (METAR) for Branch County Memorial Airport

Retrieved 2019/10/16 10:36 UTC (0 seconds ago):

KOEB 161036Z AUTO 28014G17KT 10SM OVC030 08/01 A2968 RMK AO2 T00810008

Closest aviation forecast (TAF) to Branch County Memorial Airport

Closest forecast is W K Kellogg Airport, 24.1 nm (44.7 km) NNW. Retrieved 2019/10/16 06:42 UTC (4 hours ago):

TAF KBTL 160541Z 1606/1706 29011G22KT P6SM SCT015 BKN022 FM161200 30015G30KT 6SM -SHRA OVC010 FM161500 31015G29KT 6SM -SHRA OVC015 FM162200 31016G26KT P6SM VCSH OVC024 FM170300 32011G25KT P6SM BKN050